Smithers, Canada
Current Conditions -  °F | °C
As of 3:00 PM on Wednesday 22 Oct 2014 (Local Time) from CYYD Reporting Station
Broken Clouds Broken Clouds  
Wind Chill: 46°   Ceiling: 21000
Heat Index: 48°   Visibility: 25mi
Dew Point: 37°   Wind: 5mph
Humidity: 66%   Direction: 180°S
Pressure: 29.49"   Gusts: NA
Location:  54.78°N, 127.17°W
Report Text: CYYD 222200Z 18004KT 120V200 25SM FEW020 FEW040TCU SCT120 BKN210 09/03 A2949 RMK SF1TCU1AC2CI2 SLP997 DENSITY ALT 1800FT
Loading
Personal Weather Stations






























Interactive Weather Map
Tropical Storm Tracking
New forecast layout! Learn more

10-Day Weather Forecast

Advertisements
Track Severe Weather on mobile